sensor_id;sensor_type;location;lat;lon;timestamp;temperature;humidity
40932;DHT22;36257;46.052;12.540;2023-04-28T00:02:00;11.00;92.60
40932;DHT22;36257;46.052;12.540;2023-04-28T00:04:26;10.90;93.30
40932;DHT22;36257;46.052;12.540;2023-04-28T00:06:52;10.80;93.30
40932;DHT22;36257;46.052;12.540;2023-04-28T00:09:17;10.80;93.10
40932;DHT22;36257;46.052;12.540;2023-04-28T00:11:46;10.80;92.80
40932;DHT22;36257;46.052;12.540;2023-04-28T00:14:12;10.80;92.90
40932;DHT22;36257;46.052;12.540;2023-04-28T00:16:38;10.80;93.00
40932;DHT22;36257;46.052;12.540;2023-04-28T00:19:03;10.80;93.20
40932;DHT22;36257;46.052;12.540;2023-04-28T00:21:30;10.80;93.30
40932;DHT22;36257;46.052;12.540;2023-04-28T00:23:56;10.80;93.40
40932;DHT22;36257;46.052;12.540;2023-04-28T00:26:22;10.80;93.60
40932;DHT22;36257;46.052;12.540;2023-04-28T00:28:47;10.80;93.40
40932;DHT22;36257;46.052;12.540;2023-04-28T00:31:13;10.80;93.30
40932;DHT22;36257;46.052;12.540;2023-04-28T00:33:40;10.90;93.10
40932;DHT22;36257;46.052;12.540;2023-04-28T00:36:07;10.90;92.60
40932;DHT22;36257;46.052;12.540;2023-04-28T00:38:33;11.00;92.50
40932;DHT22;36257;46.052;12.540;2023-04-28T00:40:58;11.00;92.30
40932;DHT22;36257;46.052;12.540;2023-04-28T00:43:24;11.10;92.50
40932;DHT22;36257;46.052;12.540;2023-04-28T00:45:50;11.10;92.50
40932;DHT22;36257;46.052;12.540;2023-04-28T00:48:16;11.00;92.60
40932;DHT22;36257;46.052;12.540;2023-04-28T00:50:46;11.00;92.70
40932;DHT22;36257;46.052;12.540;2023-04-28T00:53:12;10.90;92.90
40932;DHT22;36257;46.052;12.540;2023-04-28T00:55:38;10.80;93.00
40932;DHT22;36257;46.052;12.540;2023-04-28T00:58:05;10.70;93.40
40932;DHT22;36257;46.052;12.540;2023-04-28T01:00:31;10.60;93.60
40932;DHT22;36257;46.052;12.540;2023-04-28T01:02:58;10.70;93.60
40932;DHT22;36257;46.052;12.540;2023-04-28T01:05:27;10.70;93.40
40932;DHT22;36257;46.052;12.540;2023-04-28T01:07:53;10.70;93.10
40932;DHT22;36257;46.052;12.540;2023-04-28T01:10:19;10.80;93.00
40932;DHT22;36257;46.052;12.540;2023-04-28T01:12:45;10.80;92.80
40932;DHT22;36257;46.052;12.540;2023-04-28T01:15:15;10.90;92.30
40932;DHT22;36257;46.052;12.540;2023-04-28T01:17:41;10.90;92.50
40932;DHT22;36257;46.052;12.540;2023-04-28T01:20:07;10.90;92.80
40932;DHT22;36257;46.052;12.540;2023-04-28T01:22:33;10.80;93.20
40932;DHT22;36257;46.052;12.540;2023-04-28T01:24:59;10.80;93.30
40932;DHT22;36257;46.052;12.540;2023-04-28T01:27:25;10.80;93.40
40932;DHT22;36257;46.052;12.540;2023-04-28T01:29:51;10.80;93.50
40932;DHT22;36257;46.052;12.540;2023-04-28T01:32:16;10.70;93.70
40932;DHT22;36257;46.052;12.540;2023-04-28T01:34:42;10.70;93.80
40932;DHT22;36257;46.052;12.540;2023-04-28T01:37:08;10.60;93.80
40932;DHT22;36257;46.052;12.540;2023-04-28T01:39:33;10.60;93.90
40932;DHT22;36257;46.052;12.540;2023-04-28T01:42:00;10.60;94.00
40932;DHT22;36257;46.052;12.540;2023-04-28T01:44:26;10.60;94.00
40932;DHT22;36257;46.052;12.540;2023-04-28T01:46:52;10.60;94.00
40932;DHT22;36257;46.052;12.540;2023-04-28T01:49:18;10.70;93.90
40932;DHT22;36257;46.052;12.540;2023-04-28T01:51:43;10.70;94.00
40932;DHT22;36257;46.052;12.540;2023-04-28T01:54:09;10.70;94.10
40932;DHT22;36257;46.052;12.540;2023-04-28T01:56:35;10.60;94.30
40932;DHT22;36257;46.052;12.540;2023-04-28T01:59:01;10.60;94.30
40932;DHT22;36257;46.052;12.540;2023-04-28T02:01:26;10.60;94.30
40932;DHT22;36257;46.052;12.540;2023-04-28T02:03:52;10.60;94.00
40932;DHT22;36257;46.052;12.540;2023-04-28T02:06:19;10.70;93.50
40932;DHT22;36257;46.052;12.540;2023-04-28T02:08:45;10.70;93.20
40932;DHT22;36257;46.052;12.540;2023-04-28T02:11:10;10.70;93.10
40932;DHT22;36257;46.052;12.540;2023-04-28T02:13:36;10.70;93.30
40932;DHT22;36257;46.052;12.540;2023-04-28T02:16:02;10.70;93.10
40932;DHT22;36257;46.052;12.540;2023-04-28T02:18:27;10.80;93.00
40932;DHT22;36257;46.052;12.540;2023-04-28T02:20:53;10.80;93.10
40932;DHT22;36257;46.052;12.540;2023-04-28T02:23:19;10.80;93.10
40932;DHT22;36257;46.052;12.540;2023-04-28T02:25:44;10.80;93.30
40932;DHT22;36257;46.052;12.540;2023-04-28T02:28:10;10.70;93.30
40932;DHT22;36257;46.052;12.540;2023-04-28T02:30:35;10.70;93.20
40932;DHT22;36257;46.052;12.540;2023-04-28T02:33:01;10.70;93.00
40932;DHT22;36257;46.052;12.540;2023-04-28T02:35:27;10.70;92.90
40932;DHT22;36257;46.052;12.540;2023-04-28T02:37:52;10.70;93.20
40932;DHT22;36257;46.052;12.540;2023-04-28T02:40:18;10.60;93.70
40932;DHT22;36257;46.052;12.540;2023-04-28T02:42:44;10.50;94.10
40932;DHT22;36257;46.052;12.540;2023-04-28T02:45:10;10.50;94.10
40932;DHT22;36257;46.052;12.540;2023-04-28T02:47:35;10.60;93.90
40932;DHT22;36257;46.052;12.540;2023-04-28T02:50:01;10.50;94.00
40932;DHT22;36257;46.052;12.540;2023-04-28T02:52:27;10.50;94.30
40932;DHT22;36257;46.052;12.540;2023-04-28T02:54:53;10.40;94.70
40932;DHT22;36257;46.052;12.540;2023-04-28T02:57:21;10.40;94.80
40932;DHT22;36257;46.052;12.540;2023-04-28T02:59:47;10.40;94.40
40932;DHT22;36257;46.052;12.540;2023-04-28T03:02:13;10.40;94.10
40932;DHT22;36257;46.052;12.540;2023-04-28T03:04:39;10.50;93.40
40932;DHT22;36257;46.052;12.540;2023-04-28T03:07:05;10.50;93.30
40932;DHT22;36257;46.052;12.540;2023-04-28T03:09:30;10.40;93.70
40932;DHT22;36257;46.052;12.540;2023-04-28T03:11:56;10.40;94.20
40932;DHT22;36257;46.052;12.540;2023-04-28T03:14:22;10.40;94.60
40932;DHT22;36257;46.052;12.540;2023-04-28T03:16:47;10.40;94.80
40932;DHT22;36257;46.052;12.540;2023-04-28T03:19:13;10.40;95.00
40932;DHT22;36257;46.052;12.540;2023-04-28T03:21:38;10.40;94.40
40932;DHT22;36257;46.052;12.540;2023-04-28T03:24:05;10.40;93.70
40932;DHT22;36257;46.052;12.540;2023-04-28T03:26:31;10.50;93.30
40932;DHT22;36257;46.052;12.540;2023-04-28T03:28:57;10.60;93.20
40932;DHT22;36257;46.052;12.540;2023-04-28T03:31:22;10.60;93.20
40932;DHT22;36257;46.052;12.540;2023-04-28T03:33:48;10.50;93.80
40932;DHT22;36257;46.052;12.540;2023-04-28T03:36:14;10.50;94.30
40932;DHT22;36257;46.052;12.540;2023-04-28T03:38:40;10.50;94.70
40932;DHT22;36257;46.052;12.540;2023-04-28T03:41:06;10.40;94.80
40932;DHT22;36257;46.052;12.540;2023-04-28T03:43:32;10.40;94.80
40932;DHT22;36257;46.052;12.540;2023-04-28T03:45:59;10.40;94.40
40932;DHT22;36257;46.052;12.540;2023-04-28T03:48:25;10.40;94.10
40932;DHT22;36257;46.052;12.540;2023-04-28T03:50:51;10.50;93.90
40932;DHT22;36257;46.052;12.540;2023-04-28T03:53:16;10.40;93.70
40932;DHT22;36257;46.052;12.540;2023-04-28T03:55:43;10.40;94.10
40932;DHT22;36257;46.052;12.540;2023-04-28T03:58:08;10.40;94.30
40932;DHT22;36257;46.052;12.540;2023-04-28T04:00:34;10.50;94.10
40932;DHT22;36257;46.052;12.540;2023-04-28T04:03:00;10.50;94.20
40932;DHT22;36257;46.052;12.540;2023-04-28T04:05:26;10.40;94.20
40932;DHT22;36257;46.052;12.540;2023-04-28T04:07:51;10.40;94.40
40932;DHT22;36257;46.052;12.540;2023-04-28T04:10:17;10.50;94.60
40932;DHT22;36257;46.052;12.540;2023-04-28T04:12:43;10.50;94.40
40932;DHT22;36257;46.052;12.540;2023-04-28T04:15:09;10.50;94.20
40932;DHT22;36257;46.052;12.540;2023-04-28T04:17:34;10.40;94.40
40932;DHT22;36257;46.052;12.540;2023-04-28T04:20:00;10.40;94.60
40932;DHT22;36257;46.052;12.540;2023-04-28T04:22:26;10.40;94.60
40932;DHT22;36257;46.052;12.540;2023-04-28T04:24:52;10.40;95.00
40932;DHT22;36257;46.052;12.540;2023-04-28T04:27:17;10.40;95.40
40932;DHT22;36257;46.052;12.540;2023-04-28T04:29:43;10.40;95.60
40932;DHT22;36257;46.052;12.540;2023-04-28T04:32:09;10.30;95.60
40932;DHT22;36257;46.052;12.540;2023-04-28T04:34:35;10.30;95.80
40932;DHT22;36257;46.052;12.540;2023-04-28T04:37:01;10.30;96.10
40932;DHT22;36257;46.052;12.540;2023-04-28T04:39:26;10.20;96.30
40932;DHT22;36257;46.052;12.540;2023-04-28T04:41:52;10.20;96.50
40932;DHT22;36257;46.052;12.540;2023-04-28T04:44:17;10.20;96.40
40932;DHT22;36257;46.052;12.540;2023-04-28T04:46:43;10.30;96.20
40932;DHT22;36257;46.052;12.540;2023-04-28T04:49:09;10.30;96.50
40932;DHT22;36257;46.052;12.540;2023-04-28T04:51:34;10.30;96.60
40932;DHT22;36257;46.052;12.540;2023-04-28T04:54:00;10.40;96.50
40932;DHT22;36257;46.052;12.540;2023-04-28T04:56:26;10.40;96.70
40932;DHT22;36257;46.052;12.540;2023-04-28T04:58:51;10.50;96.60
40932;DHT22;36257;46.052;12.540;2023-04-28T05:01:17;10.60;96.70
40932;DHT22;36257;46.052;12.540;2023-04-28T05:03:43;10.60;96.70
40932;DHT22;36257;46.052;12.540;2023-04-28T05:06:08;10.70;96.70
40932;DHT22;36257;46.052;12.540;2023-04-28T05:08:34;10.80;96.00
40932;DHT22;36257;46.052;12.540;2023-04-28T05:10:59;11.00;95.50
40932;DHT22;36257;46.052;12.540;2023-04-28T05:13:25;11.00;95.20
40932;DHT22;36257;46.052;12.540;2023-04-28T05:15:51;11.00;94.70
40932;DHT22;36257;46.052;12.540;2023-04-28T05:18:16;11.20;94.30
40932;DHT22;36257;46.052;12.540;2023-04-28T05:20:42;11.30;94.70
40932;DHT22;36257;46.052;12.540;2023-04-28T05:23:07;11.40;94.60
40932;DHT22;36257;46.052;12.540;2023-04-28T05:25:33;11.50;94.50
40932;DHT22;36257;46.052;12.540;2023-04-28T05:27:59;11.50;94.60
40932;DHT22;36257;46.052;12.540;2023-04-28T05:30:29;11.50;94.20
40932;DHT22;36257;46.052;12.540;2023-04-28T05:32:55;11.50;94.00
40932;DHT22;36257;46.052;12.540;2023-04-28T05:35:20;11.50;94.20
40932;DHT22;36257;46.052;12.540;2023-04-28T05:37:46;11.60;94.30
40932;DHT22;36257;46.052;12.540;2023-04-28T05:40:11;11.70;94.30
40932;DHT22;36257;46.052;12.540;2023-04-28T05:42:37;11.80;94.10
40932;DHT22;36257;46.052;12.540;2023-04-28T05:45:04;11.90;94.30
40932;DHT22;36257;46.052;12.540;2023-04-28T05:47:30;12.10;92.00
40932;DHT22;36257;46.052;12.540;2023-04-28T05:49:56;12.20;92.30
40932;DHT22;36257;46.052;12.540;2023-04-28T05:52:21;12.40;92.40
40932;DHT22;36257;46.052;12.540;2023-04-28T05:54:47;12.60;90.00
40932;DHT22;36257;46.052;12.540;2023-04-28T05:57:13;12.80;87.90
40932;DHT22;36257;46.052;12.540;2023-04-28T05:59:39;12.90;87.40
40932;DHT22;36257;46.052;12.540;2023-04-28T06:02:05;13.00;87.60
40932;DHT22;36257;46.052;12.540;2023-04-28T06:04:31;13.10;87.60
40932;DHT22;36257;46.052;12.540;2023-04-28T06:06:57;13.20;87.20
40932;DHT22;36257;46.052;12.540;2023-04-28T06:09:22;13.30;86.60
40932;DHT22;36257;46.052;12.540;2023-04-28T06:11:48;13.40;85.90
40932;DHT22;36257;46.052;12.540;2023-04-28T06:14:13;13.50;86.60
40932;DHT22;36257;46.052;12.540;2023-04-28T06:16:39;13.50;85.80
40932;DHT22;36257;46.052;12.540;2023-04-28T06:19:05;13.60;85.40
40932;DHT22;36257;46.052;12.540;2023-04-28T06:21:30;13.50;85.60
40932;DHT22;36257;46.052;12.540;2023-04-28T06:23:56;13.60;85.90
40932;DHT22;36257;46.052;12.540;2023-04-28T06:26:23;13.70;85.50
40932;DHT22;36257;46.052;12.540;2023-04-28T06:28:49;13.80;83.90
40932;DHT22;36257;46.052;12.540;2023-04-28T06:31:15;13.90;83.80
40932;DHT22;36257;46.052;12.540;2023-04-28T06:33:41;13.90;84.90
40932;DHT22;36257;46.052;12.540;2023-04-28T06:36:06;13.80;84.90
40932;DHT22;36257;46.052;12.540;2023-04-28T06:38:32;13.80;85.40
40932;DHT22;36257;46.052;12.540;2023-04-28T06:40:58;13.80;85.30
40932;DHT22;36257;46.052;12.540;2023-04-28T06:43:24;13.90;84.40
40932;DHT22;36257;46.052;12.540;2023-04-28T06:45:49;13.90;84.90
40932;DHT22;36257;46.052;12.540;2023-04-28T06:48:15;13.80;85.40
40932;DHT22;36257;46.052;12.540;2023-04-28T06:50:41;13.70;85.20
40932;DHT22;36257;46.052;12.540;2023-04-28T06:53:06;13.70;86.20
40932;DHT22;36257;46.052;12.540;2023-04-28T06:55:33;13.60;86.40
40932;DHT22;36257;46.052;12.540;2023-04-28T06:57:59;13.70;87.00
40932;DHT22;36257;46.052;12.540;2023-04-28T07:00:24;13.80;87.30
40932;DHT22;36257;46.052;12.540;2023-04-28T07:02:50;13.90;85.70
40932;DHT22;36257;46.052;12.540;2023-04-28T07:05:16;14.00;86.30
40932;DHT22;36257;46.052;12.540;2023-04-28T07:07:41;14.10;85.30
40932;DHT22;36257;46.052;12.540;2023-04-28T07:10:07;14.20;85.30
40932;DHT22;36257;46.052;12.540;2023-04-28T07:12:33;14.20;86.20
40932;DHT22;36257;46.052;12.540;2023-04-28T07:14:59;14.30;85.90
40932;DHT22;36257;46.052;12.540;2023-04-28T07:17:24;14.30;85.40
40932;DHT22;36257;46.052;12.540;2023-04-28T07:19:50;14.40;84.20
40932;DHT22;36257;46.052;12.540;2023-04-28T07:22:16;14.40;84.70
40932;DHT22;36257;46.052;12.540;2023-04-28T07:24:43;14.40;85.30
40932;DHT22;36257;46.052;12.540;2023-04-28T07:27:08;14.40;83.50
40932;DHT22;36257;46.052;12.540;2023-04-28T07:29:34;14.40;84.80
40932;DHT22;36257;46.052;12.540;2023-04-28T07:32:00;14.40;85.50
40932;DHT22;36257;46.052;12.540;2023-04-28T07:34:27;14.40;85.40
40932;DHT22;36257;46.052;12.540;2023-04-28T07:36:53;14.40;84.50
40932;DHT22;36257;46.052;12.540;2023-04-28T07:39:19;14.40;84.80
40932;DHT22;36257;46.052;12.540;2023-04-28T07:41:44;14.40;85.50
40932;DHT22;36257;46.052;12.540;2023-04-28T07:44:10;14.40;85.00
40932;DHT22;36257;46.052;12.540;2023-04-28T07:46:36;14.30;85.70
40932;DHT22;36257;46.052;12.540;2023-04-28T07:49:02;14.30;86.60
40932;DHT22;36257;46.052;12.540;2023-04-28T07:51:29;14.40;87.00
40932;DHT22;36257;46.052;12.540;2023-04-28T07:53:55;14.40;87.20
40932;DHT22;36257;46.052;12.540;2023-04-28T07:56:21;14.40;87.70
40932;DHT22;36257;46.052;12.540;2023-04-28T07:58:47;14.40;87.40
40932;DHT22;36257;46.052;12.540;2023-04-28T08:01:13;14.40;87.60
40932;DHT22;36257;46.052;12.540;2023-04-28T08:03:39;14.30;89.60
40932;DHT22;36257;46.052;12.540;2023-04-28T08:06:06;14.30;88.90
40932;DHT22;36257;46.052;12.540;2023-04-28T08:08:31;14.30;90.00
40932;DHT22;36257;46.052;12.540;2023-04-28T08:10:58;14.30;90.00
40932;DHT22;36257;46.052;12.540;2023-04-28T08:13:23;14.30;90.90
40932;DHT22;36257;46.052;12.540;2023-04-28T08:15:49;14.30;92.50
40932;DHT22;36257;46.052;12.540;2023-04-28T08:18:16;14.20;92.50
40932;DHT22;36257;46.052;12.540;2023-04-28T08:20:41;14.20;91.40
40932;DHT22;36257;46.052;12.540;2023-04-28T08:23:08;14.00;93.10
40932;DHT22;36257;46.052;12.540;2023-04-28T08:25:34;13.90;92.70
40932;DHT22;36257;46.052;12.540;2023-04-28T08:27:59;13.80;93.40
40932;DHT22;36257;46.052;12.540;2023-04-28T08:30:25;13.80;94.30
40932;DHT22;36257;46.052;12.540;2023-04-28T08:32:51;13.80;95.10
40932;DHT22;36257;46.052;12.540;2023-04-28T08:35:16;13.80;96.10
40932;DHT22;36257;46.052;12.540;2023-04-28T08:37:43;13.80;98.00
40932;DHT22;36257;46.052;12.540;2023-04-28T08:40:10;13.80;98.80
40932;DHT22;36257;46.052;12.540;2023-04-28T08:42:36;13.80;98.80
40932;DHT22;36257;46.052;12.540;2023-04-28T08:45:03;13.90;99.20
40932;DHT22;36257;46.052;12.540;2023-04-28T08:47:39;14.00;99.90
40932;DHT22;36257;46.052;12.540;2023-04-28T08:50:09;14.20;99.90
40932;DHT22;36257;46.052;12.540;2023-04-28T08:52:37;14.30;98.90
40932;DHT22;36257;46.052;12.540;2023-04-28T08:55:08;14.40;99.10
40932;DHT22;36257;46.052;12.540;2023-04-28T08:57:42;14.50;98.40
40932;DHT22;36257;46.052;12.540;2023-04-28T09:00:08;14.70;96.30
40932;DHT22;36257;46.052;12.540;2023-04-28T09:02:34;14.80;93.90
40932;DHT22;36257;46.052;12.540;2023-04-28T09:05:03;15.00;93.20
40932;DHT22;36257;46.052;12.540;2023-04-28T09:07:29;15.10;91.40
40932;DHT22;36257;46.052;12.540;2023-04-28T09:10:17;15.30;91.20
40932;DHT22;36257;46.052;12.540;2023-04-28T09:12:44;15.50;90.40
40932;DHT22;36257;46.052;12.540;2023-04-28T09:15:09;15.70;91.30
40932;DHT22;36257;46.052;12.540;2023-04-28T09:17:48;15.80;88.00
40932;DHT22;36257;46.052;12.540;2023-04-28T09:20:21;15.80;87.40
40932;DHT22;36257;46.052;12.540;2023-04-28T09:22:49;15.80;88.20
40932;DHT22;36257;46.052;12.540;2023-04-28T09:25:16;16.00;85.60
40932;DHT22;36257;46.052;12.540;2023-04-28T09:27:42;16.00;86.30
40932;DHT22;36257;46.052;12.540;2023-04-28T09:30:07;16.10;86.60
40932;DHT22;36257;46.052;12.540;2023-04-28T09:32:34;16.30;86.90
40932;DHT22;36257;46.052;12.540;2023-04-28T09:35:00;16.60;83.90
40932;DHT22;36257;46.052;12.540;2023-04-28T09:37:27;16.80;83.40
40932;DHT22;36257;46.052;12.540;2023-04-28T09:40:07;17.00;84.30
40932;DHT22;36257;46.052;12.540;2023-04-28T09:42:43;17.10;82.30
40932;DHT22;36257;46.052;12.540;2023-04-28T09:45:12;17.10;82.40
40932;DHT22;36257;46.052;12.540;2023-04-28T09:47:38;17.00;81.60
40932;DHT22;36257;46.052;12.540;2023-04-28T09:50:07;17.10;82.70
40932;DHT22;36257;46.052;12.540;2023-04-28T09:52:40;17.30;82.00
40932;DHT22;36257;46.052;12.540;2023-04-28T09:55:07;17.30;80.60
40932;DHT22;36257;46.052;12.540;2023-04-28T09:57:34;17.30;81.70
40932;DHT22;36257;46.052;12.540;2023-04-28T10:00:01;17.30;81.10
40932;DHT22;36257;46.052;12.540;2023-04-28T10:02:30;17.30;80.40
40932;DHT22;36257;46.052;12.540;2023-04-28T10:04:57;17.40;82.70
40932;DHT22;36257;46.052;12.540;2023-04-28T10:07:22;17.40;79.00
40932;DHT22;36257;46.052;12.540;2023-04-28T10:09:52;17.40;79.90
40932;DHT22;36257;46.052;12.540;2023-04-28T10:12:22;17.50;78.30
40932;DHT22;36257;46.052;12.540;2023-04-28T10:14:49;17.50;77.30
40932;DHT22;36257;46.052;12.540;2023-04-28T10:17:19;17.60;77.60
40932;DHT22;36257;46.052;12.540;2023-04-28T10:19:47;17.40;78.70
40932;DHT22;36257;46.052;12.540;2023-04-28T10:27:37;17.40;77.00
40932;DHT22;36257;46.052;12.540;2023-04-28T10:32:36;17.60;75.70
40932;DHT22;36257;46.052;12.540;2023-04-28T10:40:31;17.70;75.70
40932;DHT22;36257;46.052;12.540;2023-04-28T10:42:58;17.90;77.90
40932;DHT22;36257;46.052;12.540;2023-04-28T10:58:47;18.70;73.20
40932;DHT22;36257;46.052;12.540;2023-04-28T11:14:34;18.30;71.80
40932;DHT22;36257;46.052;12.540;2023-04-28T11:17:09;18.40;72.00
40932;DHT22;36257;46.052;12.540;2023-04-28T11:19:39;18.60;73.70
40932;DHT22;36257;46.052;12.540;2023-04-28T11:22:06;18.70;72.90
40932;DHT22;36257;46.052;12.540;2023-04-28T11:24:37;18.70;71.30
40932;DHT22;36257;46.052;12.540;2023-04-28T11:27:03;18.60;71.40
40932;DHT22;36257;46.052;12.540;2023-04-28T11:29:33;18.60;70.30
40932;DHT22;36257;46.052;12.540;2023-04-28T11:32:00;18.60;70.80
40932;DHT22;36257;46.052;12.540;2023-04-28T11:34:26;18.60;72.30
40932;DHT22;36257;46.052;12.540;2023-04-28T11:36:52;18.60;71.20
40932;DHT22;36257;46.052;12.540;2023-04-28T11:39:31;18.60;72.60
40932;DHT22;36257;46.052;12.540;2023-04-28T11:42:04;18.60;72.20
40932;DHT22;36257;46.052;12.540;2023-04-28T11:44:33;18.70;74.00
40932;DHT22;36257;46.052;12.540;2023-04-28T11:47:01;18.80;72.80
40932;DHT22;36257;46.052;12.540;2023-04-28T11:49:51;18.80;70.30
40932;DHT22;36257;46.052;12.540;2023-04-28T11:52:16;18.90;73.70
40932;DHT22;36257;46.052;12.540;2023-04-28T11:54:42;19.10;73.40
40932;DHT22;36257;46.052;12.540;2023-04-28T11:57:20;19.30;73.00
40932;DHT22;36257;46.052;12.540;2023-04-28T11:59:46;19.40;72.60
40932;DHT22;36257;46.052;12.540;2023-04-28T12:02:11;19.20;71.60
40932;DHT22;36257;46.052;12.540;2023-04-28T12:04:40;18.90;71.70
40932;DHT22;36257;46.052;12.540;2023-04-28T12:09:33;18.50;72.30
40932;DHT22;36257;46.052;12.540;2023-04-28T12:12:07;18.30;73.50
40932;DHT22;36257;46.052;12.540;2023-04-28T12:17:28;18.20;73.90
40932;DHT22;36257;46.052;12.540;2023-04-28T12:20:00;18.20;75.00
40932;DHT22;36257;46.052;12.540;2023-04-28T12:22:26;18.20;73.90
40932;DHT22;36257;46.052;12.540;2023-04-28T12:25:21;18.20;71.90
40932;DHT22;36257;46.052;12.540;2023-04-28T12:28:06;18.20;72.30
40932;DHT22;36257;46.052;12.540;2023-04-28T12:30:36;18.20;72.10
40932;DHT22;36257;46.052;12.540;2023-04-28T12:33:26;18.30;72.10
40932;DHT22;36257;46.052;12.540;2023-04-28T12:35:55;18.50;73.00
40932;DHT22;36257;46.052;12.540;2023-04-28T12:38:22;18.70;71.80
40932;DHT22;36257;46.052;12.540;2023-04-28T12:40:47;18.80;72.30
40932;DHT22;36257;46.052;12.540;2023-04-28T12:43:13;18.90;72.00
40932;DHT22;36257;46.052;12.540;2023-04-28T12:45:40;18.90;71.40
40932;DHT22;36257;46.052;12.540;2023-04-28T12:48:05;18.70;69.70
40932;DHT22;36257;46.052;12.540;2023-04-28T12:50:32;18.40;70.10
40932;DHT22;36257;46.052;12.540;2023-04-28T12:52:58;18.20;71.80
40932;DHT22;36257;46.052;12.540;2023-04-28T12:55:24;18.20;72.70
40932;DHT22;36257;46.052;12.540;2023-04-28T12:57:50;18.20;72.30
40932;DHT22;36257;46.052;12.540;2023-04-28T13:00:16;18.20;71.60
40932;DHT22;36257;46.052;12.540;2023-04-28T13:02:45;18.30;69.90
40932;DHT22;36257;46.052;12.540;2023-04-28T13:05:11;18.30;71.70
40932;DHT22;36257;46.052;12.540;2023-04-28T13:07:38;18.40;72.30
40932;DHT22;36257;46.052;12.540;2023-04-28T13:10:05;18.60;71.10
40932;DHT22;36257;46.052;12.540;2023-04-28T13:12:30;18.70;72.30
40932;DHT22;36257;46.052;12.540;2023-04-28T13:14:57;18.80;72.20
40932;DHT22;36257;46.052;12.540;2023-04-28T13:17:25;18.80;70.80
40932;DHT22;36257;46.052;12.540;2023-04-28T13:19:51;18.80;67.50
40932;DHT22;36257;46.052;12.540;2023-04-28T13:22:17;18.80;66.90
40932;DHT22;36257;46.052;12.540;2023-04-28T13:24:42;18.70;70.40
40932;DHT22;36257;46.052;12.540;2023-04-28T13:27:08;18.70;70.70
40932;DHT22;36257;46.052;12.540;2023-04-28T13:29:34;18.70;70.30
40932;DHT22;36257;46.052;12.540;2023-04-28T13:32:03;18.70;66.40
40932;DHT22;36257;46.052;12.540;2023-04-28T13:34:31;18.70;68.40
40932;DHT22;36257;46.052;12.540;2023-04-28T13:36:57;18.60;68.40
40932;DHT22;36257;46.052;12.540;2023-04-28T13:39:23;18.60;67.90
40932;DHT22;36257;46.052;12.540;2023-04-28T13:41:49;18.50;68.40
40932;DHT22;36257;46.052;12.540;2023-04-28T13:44:15;18.50;69.10
40932;DHT22;36257;46.052;12.540;2023-04-28T13:46:41;18.60;69.60
40932;DHT22;36257;46.052;12.540;2023-04-28T13:49:08;18.60;71.00
40932;DHT22;36257;46.052;12.540;2023-04-28T13:51:34;18.60;70.30
40932;DHT22;36257;46.052;12.540;2023-04-28T13:54:04;18.80;69.40
40932;DHT22;36257;46.052;12.540;2023-04-28T13:56:33;18.80;68.30
40932;DHT22;36257;46.052;12.540;2023-04-28T13:59:01;18.80;70.10
40932;DHT22;36257;46.052;12.540;2023-04-28T14:01:27;18.90;68.60
40932;DHT22;36257;46.052;12.540;2023-04-28T14:03:52;18.90;67.90
40932;DHT22;36257;46.052;12.540;2023-04-28T14:06:18;19.00;69.00
40932;DHT22;36257;46.052;12.540;2023-04-28T14:08:44;19.10;69.40
40932;DHT22;36257;46.052;12.540;2023-04-28T14:11:09;19.10;66.90
40932;DHT22;36257;46.052;12.540;2023-04-28T14:13:37;19.20;69.00
40932;DHT22;36257;46.052;12.540;2023-04-28T14:16:02;19.30;68.80
40932;DHT22;36257;46.052;12.540;2023-04-28T14:18:28;19.30;66.90
40932;DHT22;36257;46.052;12.540;2023-04-28T14:20:54;19.30;66.40
40932;DHT22;36257;46.052;12.540;2023-04-28T14:23:21;19.20;66.90
40932;DHT22;36257;46.052;12.540;2023-04-28T14:25:47;19.30;67.70
40932;DHT22;36257;46.052;12.540;2023-04-28T14:28:13;19.40;68.20
40932;DHT22;36257;46.052;12.540;2023-04-28T14:30:39;19.40;68.40
40932;DHT22;36257;46.052;12.540;2023-04-28T14:33:06;19.60;67.30
40932;DHT22;36257;46.052;12.540;2023-04-28T14:35:33;19.60;67.50
40932;DHT22;36257;46.052;12.540;2023-04-28T14:38:00;19.70;67.70
40932;DHT22;36257;46.052;12.540;2023-04-28T14:40:25;19.60;67.10
40932;DHT22;36257;46.052;12.540;2023-04-28T14:42:51;19.60;66.10
40932;DHT22;36257;46.052;12.540;2023-04-28T14:45:17;19.60;66.90
40932;DHT22;36257;46.052;12.540;2023-04-28T14:47:45;19.70;66.50
40932;DHT22;36257;46.052;12.540;2023-04-28T14:50:10;19.70;65.70
40932;DHT22;36257;46.052;12.540;2023-04-28T14:52:36;19.60;65.50
40932;DHT22;36257;46.052;12.540;2023-04-28T14:55:03;19.50;66.50
40932;DHT22;36257;46.052;12.540;2023-04-28T14:57:29;19.50;65.90
40932;DHT22;36257;46.052;12.540;2023-04-28T14:59:55;19.30;67.00
40932;DHT22;36257;46.052;12.540;2023-04-28T15:02:21;19.10;66.40
40932;DHT22;36257;46.052;12.540;2023-04-28T15:04:51;19.10;67.00
40932;DHT22;36257;46.052;12.540;2023-04-28T15:07:17;19.00;67.00
40932;DHT22;36257;46.052;12.540;2023-04-28T15:09:42;19.00;67.00
40932;DHT22;36257;46.052;12.540;2023-04-28T15:12:08;18.90;68.20
40932;DHT22;36257;46.052;12.540;2023-04-28T15:14:34;18.80;66.50
40932;DHT22;36257;46.052;12.540;2023-04-28T15:16:59;18.70;67.70
40932;DHT22;36257;46.052;12.540;2023-04-28T15:19:25;18.60;66.90
40932;DHT22;36257;46.052;12.540;2023-04-28T15:21:51;18.60;68.10
40932;DHT22;36257;46.052;12.540;2023-04-28T15:24:18;18.50;68.00
40932;DHT22;36257;46.052;12.540;2023-04-28T15:26:45;18.40;68.10
40932;DHT22;36257;46.052;12.540;2023-04-28T15:29:11;18.40;68.90
40932;DHT22;36257;46.052;12.540;2023-04-28T15:31:37;18.30;68.90
40932;DHT22;36257;46.052;12.540;2023-04-28T15:34:04;18.30;68.80
40932;DHT22;36257;46.052;12.540;2023-04-28T15:36:30;18.20;68.50
40932;DHT22;36257;46.052;12.540;2023-04-28T15:38:56;18.20;68.10
40932;DHT22;36257;46.052;12.540;2023-04-28T15:41:22;18.10;68.10
40932;DHT22;36257;46.052;12.540;2023-04-28T15:43:48;18.10;70.20
40932;DHT22;36257;46.052;12.540;2023-04-28T15:46:14;18.00;69.60
40932;DHT22;36257;46.052;12.540;2023-04-28T15:48:42;18.00;69.40
40932;DHT22;36257;46.052;12.540;2023-04-28T15:51:10;17.90;69.80
40932;DHT22;36257;46.052;12.540;2023-04-28T15:53:37;17.70;69.90
40932;DHT22;36257;46.052;12.540;2023-04-28T15:56:03;17.70;70.10
40932;DHT22;36257;46.052;12.540;2023-04-28T15:58:29;17.60;70.40